Terminal Aerodrome Forecast
Issued by NWS

Home | Current Version | Previous Version | Text Only | Print | Product List | Glossary On
Versions: 1 2 3 4 5 6 7 8 9 10 11 12 13 14 15 16 17 18 19 20 21 22 23 24 25 26 27 28 29 30 31 32 33 34 35 36 37 38
000
FTUS41 KBOX 220304 AAC
TAFBED
TAF AMD
KBED 220304Z 2203/2224 VRB03KT 5SM BR BKN005
     FM220430 00000KT 2SM BR BKN005
     FM220630 27009KT P6SM SCT008 OVC050
     FM221100 26008KT P6SM BKN100
     FM221500 27012G23KT P6SM SCT250
     FM221800 28013G24KT P6SM BKN040
     FM222200 29010G19KT P6SM SCT250=

USA.gov is the U.S. government's official web portal to all federal, state and local government web resources and services.